Time;durP1;ratioP1;P1;durP2;ratioP2;P2;SDS_P1;SDS_P2;PMS_P1;PMS_P2;Temp;Humidity;BMP_temperature;BMP_pressure;BME280_temperature;BME280_humidity;BME280_pressure;Samples;Min_cycle;Max_cycle;Signal;HPM_P1;HPM_P2
2022/08/17 00:03:04;;;;;;;1999.90;999.90;;;;;;;17.95;78.27;98620.53;9973315;23;20030;-76
2022/08/17 00:07:06;;;;;;;1999.90;999.90;;;;;;;17.86;78.72;98631.50;10001299;23;20015;-76
2022/08/17 00:11:11;;;;;;;1999.90;999.90;;;;;;;17.87;79.46;98627.94;10000733;23;20058;-76
2022/08/17 00:15:13;;;;;;;1999.90;999.90;;;;;;;17.90;79.95;98618.13;9999424;23;20074;-76
2022/08/17 00:19:21;;;;;;;1999.90;999.90;;;;;;;17.96;80.22;98623.13;10000773;23;20054;-76
2022/08/17 00:23:24;;;;;;;1999.90;999.90;;;;;;;18.01;80.05;98628.16;10001292;23;20037;-76
2022/08/17 00:27:26;;;;;;;1999.90;999.90;;;;;;;18.04;80.56;98622.75;10043434;23;20015;-76
2022/08/17 00:31:27;;;;;;;1999.90;999.90;;;;;;;18.07;80.24;98615.56;9976366;23;20065;-77
2022/08/17 00:35:29;;;;;;;1999.90;999.90;;;;;;;17.99;80.28;98615.09;10045352;23;20398;-77
2022/08/17 00:39:30;;;;;;;1999.90;999.90;;;;;;;18.01;80.00;98610.63;10004063;23;20445;-77
2022/08/17 00:43:45;;;;;;;1999.90;999.90;;;;;;;18.02;80.32;98622.84;10046008;23;20575;-77
2022/08/17 00:47:48;;;;;;;1999.90;999.90;;;;;;;18.01;80.48;98628.16;10000539;23;20438;-77
2022/08/17 00:51:56;;;;;;;1999.90;999.90;;;;;;;17.95;80.48;98631.91;10029789;23;20772;-77
2022/08/17 00:56:00;;;;;;;1999.90;999.90;;;;;;;17.95;80.52;98624.03;10003957;23;20030;-77
2022/08/17 01:00:11;;;;;;;1999.90;999.90;;;;;;;18.00;80.48;98627.31;10025564;23;20022;-77
2022/08/17 01:04:14;;;;;;;1999.90;999.90;;;;;;;18.00;80.78;98622.06;10000272;23;20382;-76
2022/08/17 01:08:21;;;;;;;1999.90;999.90;;;;;;;18.00;80.98;98615.94;10045945;23;20050;-77
2022/08/17 01:12:22;;;;;;;1999.90;999.90;;;;;;;17.99;81.13;98622.97;9981011;23;20536;-77
2022/08/17 01:16:27;;;;;;;1999.90;999.90;;;;;;;17.98;80.97;98623.06;10000769;23;20054;-77
2022/08/17 01:20:29;;;;;;;1999.90;999.90;;;;;;;17.90;80.80;98617.28;10004868;23;20031;-77
2022/08/17 01:24:51;;;;;;;1999.90;999.90;;;;;;;17.87;80.95;98618.28;10029664;23;20023;-77
2022/08/17 01:28:53;;;;;;;1999.90;999.90;;;;;;;17.84;81.33;98622.84;10028648;23;20019;-77
2022/08/17 01:32:56;;;;;;;1999.90;999.90;;;;;;;17.81;81.35;98629.94;9998635;23;20026;-77
2022/08/17 01:36:59;;;;;;;1999.90;999.90;;;;;;;17.76;81.28;98623.16;10003799;23;20023;-77
2022/08/17 01:41:05;;;;;;;1999.90;999.90;;;;;;;17.72;81.75;98632.97;10002107;23;20030;-77
2022/08/17 01:45:13;;;;;;;1999.90;999.90;;;;;;;17.68;81.60;98634.03;10025521;23;20536;-77
2022/08/17 01:49:15;;;;;;;1999.90;999.90;;;;;;;17.66;81.88;98640.25;10001708;23;20026;-77
2022/08/17 01:53:33;;;;;;;1999.90;999.90;;;;;;;17.45;82.59;98692.78;9979742;23;20030;-77
2022/08/17 01:57:35;;;;;;;1999.90;999.90;;;;;;;17.37;83.72;98705.38;10002958;23;20084;-77
2022/08/17 02:01:36;;;;;;;1999.90;999.90;;;;;;;17.50;83.40;98696.06;9999834;23;20054;-77
2022/08/17 02:05:39;;;;;;;1999.90;999.90;;;;;;;17.61;82.90;98700.84;10033497;23;20412;-77
2022/08/17 02:09:40;;;;;;;1999.90;999.90;;;;;;;17.75;82.23;98700.25;10009033;23;20050;-77
2022/08/17 02:13:44;;;;;;;1999.90;999.90;;;;;;;17.87;81.88;98702.34;9986371;23;20105;-77
2022/08/17 02:17:46;;;;;;;1999.90;999.90;;;;;;;17.97;81.43;98694.91;10004745;23;20030;-77
2022/08/17 02:21:55;;;;;;;1999.90;999.90;;;;;;;18.08;80.56;98703.97;10010525;23;20078;-77
2022/08/17 02:25:58;;;;;;;1999.90;999.90;;;;;;;18.18;80.51;98716.72;10012333;23;20453;-77
2022/08/17 02:29:59;;;;;;;1999.90;999.90;;;;;;;18.37;79.12;98712.31;10050072;23;20261;-77
2022/08/17 02:34:02;;;;;;;1999.90;999.90;;;;;;;18.63;79.06;98711.94;10003605;23;20030;-77
2022/08/17 02:38:05;;;;;;;1999.90;999.90;;;;;;;18.81;79.15;98710.19;10008517;23;20317;-77
2022/08/17 02:42:07;;;;;;;1999.90;999.90;;;;;;;18.84;81.42;98710.03;10009494;23;20030;-77
2022/08/17 02:46:08;;;;;;;1999.90;999.90;;;;;;;18.86;83.62;98699.47;10025003;23;20453;-77
2022/08/17 02:50:13;;;;;;;1999.90;999.90;;;;;;;18.84;84.92;98690.78;10032595;23;20562;-77
2022/08/17 02:54:15;;;;;;;1999.90;999.90;;;;;;;18.85;85.85;98703.00;10034219;23;20752;-77
2022/08/17 02:58:37;;;;;;;1999.90;999.90;;;;;;;18.85;86.76;98677.56;10032370;23;20268;-76
2022/08/17 03:02:40;;;;;;;1999.90;999.90;;;;;;;18.91;86.77;98653.59;10032822;23;20065;-76
2022/08/17 03:06:42;;;;;;;1999.90;999.90;;;;;;;18.96;87.49;98633.16;10003072;23;20019;-77
2022/08/17 03:10:45;;;;;;;1999.90;999.90;;;;;;;18.98;87.68;98607.59;10026429;23;20109;-77
2022/08/17 03:14:46;;;;;;;1999.90;999.90;;;;;;;19.02;87.96;98590.72;10027860;23;20397;-77
2022/08/17 03:18:47;;;;;;;1999.90;999.90;;;;;;;19.01;88.44;98590.81;9999251;23;20054;-77
2022/08/17 03:22:54;;;;;;;1999.90;999.90;;;;;;;18.94;89.21;98608.69;10046380;23;20027;-77
2022/08/17 03:27:03;;;;;;;1999.90;999.90;;;;;;;18.75;90.47;98615.81;10031693;23;20022;-77
2022/08/17 03:31:05;;;;;;;1999.90;999.90;;;;;;;18.71;91.14;98623.03;10029012;23;20026;-77
2022/08/17 03:35:09;;;;;;;1999.90;999.90;;;;;;;18.70;91.54;98645.00;10033425;23;20034;-77
2022/08/17 03:39:13;;;;;;;1999.90;999.90;;;;;;;18.75;91.36;98651.78;10023267;23;20046;-77
2022/08/17 03:43:15;;;;;;;1999.90;999.90;;;;;;;18.69;91.42;98664.31;10008230;23;20085;-77
2022/08/17 04:00:19;;;;;;;1999.90;999.90;;;;;;;18.71;91.43;98651.94;10002059;23;20034;-77
2022/08/17 04:04:21;;;;;;;1999.90;999.90;;;;;;;18.74;91.85;98650.09;10006190;23;20257;-77
2022/08/17 04:08:29;;;;;;;1999.90;999.90;;;;;;;18.75;92.03;98651.78;10033642;23;20135;-77
2022/08/17 04:12:42;;;;;;;1999.90;999.90;;;;;;;18.77;92.28;98631.53;10007354;23;20023;-77
2022/08/17 04:16:44;;;;;;;1999.90;999.90;;;;;;;18.80;91.53;98620.84;10027959;23;20130;-77
2022/08/17 04:20:45;;;;;;;1999.90;999.90;;;;;;;18.77;91.96;98621.00;10023306;23;20023;-77
2022/08/17 04:24:47;;;;;;;1999.90;999.90;;;;;;;18.79;91.91;98609.47;10007835;23;20023;-77
2022/08/17 04:28:48;;;;;;;1999.90;999.90;;;;;;;18.81;91.85;98625.16;9981433;23;20023;-77
2022/08/17 04:33:01;;;;;;;1999.90;999.90;;;;;;;18.67;92.38;98613.59;9999290;23;20054;-77
2022/08/17 04:37:07;;;;;;;1999.90;999.90;;;;;;;18.63;93.11;98627.78;10029416;23;20022;-77
2022/08/17 04:45:30;;;;;;;1999.90;999.90;;;;;;;18.60;93.92;98622.66;9999063;23;20030;-77
2022/08/17 04:49:33;;;;;;;1999.90;999.90;;;;;;;18.68;93.80;98619.69;10029028;23;20524;-77
2022/08/17 04:53:36;;;;;;;1999.90;999.90;;;;;;;18.75;93.91;98628.97;10002897;23;20072;-77
2022/08/17 04:57:38;;;;;;;1999.90;999.90;;;;;;;18.71;93.82;98624.78;10028956;23;20415;-77
2022/08/17 05:01:48;;;;;;;1999.90;999.90;;;;;;;18.75;93.87;98628.97;10034866;23;20083;-77
2022/08/17 05:05:50;;;;;;;1999.90;999.90;;;;;;;18.79;93.60;98624.41;10005051;23;20023;-77
2022/08/17 05:09:51;;;;;;;1999.90;999.90;;;;;;;18.68;93.85;98631.06;10002114;23;20496;-77
2022/08/17 05:13:54;;;;;;;1999.90;999.90;;;;;;;18.65;94.22;98633.81;10026801;23;20050;-77
2022/08/17 05:17:56;;;;;;;1999.90;999.90;;;;;;;18.63;94.34;98643.56;9998127;23;20026;-77
2022/08/17 05:21:57;;;;;;;1999.90;999.90;;;;;;;18.73;94.25;98625.56;10026318;23;20022;-77
2022/08/17 05:25:59;;;;;;;1999.90;999.90;;;;;;;18.80;94.17;98613.81;10043489;23;20023;-77
2022/08/17 05:30:02;;;;;;;1999.90;999.90;;;;;;;18.94;92.98;98616.59;10038697;23;20101;-76
2022/08/17 05:34:04;;;;;;;1999.90;999.90;;;;;;;18.93;93.33;98641.19;10024847;23;20054;-76
2022/08/17 05:38:07;;;;;;;1999.90;999.90;;;;;;;18.83;93.73;98641.72;9978558;23;20030;-76
2022/08/17 05:42:08;;;;;;;1999.90;999.90;;;;;;;18.85;94.37;98645.13;10002600;23;20022;-75
2022/08/17 05:46:16;;;;;;;1999.90;999.90;;;;;;;18.94;93.97;98653.44;9997722;23;20050;-76
2022/08/17 05:50:24;;;;;;;1999.90;999.90;;;;;;;19.06;93.79;98665.13;10002561;23;20029;-76
2022/08/17 05:54:58;;;;;;;1999.90;999.90;;;;;;;19.13;93.29;98679.66;10025557;23;20019;-76
2022/08/17 05:59:17;;;;;;;1999.90;999.90;;;;;;;19.21;92.61;98664.34;10001942;23;20462;-74
2022/08/17 06:03:33;;;;;;;1999.90;999.90;;;;;;;19.27;92.18;98663.19;10022143;23;20053;-74
2022/08/17 06:07:48;;;;;;;1999.90;999.90;;;;;;;19.28;91.96;98663.09;10025085;23;20103;-74
2022/08/17 06:11:58;;;;;;;1999.90;999.90;;;;;;;19.38;92.25;98650.28;10028900;23;20019;-74
2022/08/17 06:16:14;;;;;;;1999.90;999.90;;;;;;;19.55;91.94;98649.44;9996726;23;20026;-75
2022/08/17 06:20:44;;;;;;;1999.90;999.90;;;;;;;19.64;91.69;98648.97;10027848;23;20426;-75
2022/08/17 06:24:56;;;;;;;1999.90;999.90;;;;;;;19.69;91.12;98652.19;10003036;23;20058;-75
2022/08/17 06:29:05;;;;;;;1999.90;999.90;;;;;;;19.72;90.15;98667.84;9997079;23;20019;-75
2022/08/17 06:33:25;;;;;;;1999.90;999.90;;;;;;;19.79;90.34;98663.13;9995378;23;20045;-75
2022/08/17 06:37:32;;;;;;;1999.90;999.90;;;;;;;19.98;90.35;98663.81;10026639;23;20030;-76
2022/08/17 06:41:52;;;;;;;1999.90;999.90;;;;;;;20.08;90.42;98665.00;10000731;23;20109;-75
2022/08/17 06:46:06;;;;;;;1999.90;999.90;;;;;;;20.13;88.98;98665.63;9997065;23;20041;-75
2022/08/17 06:50:25;;;;;;;1999.90;999.90;;;;;;;20.12;88.49;98684.16;10001724;23;20095;-76
2022/08/17 06:54:36;;;;;;;1999.90;999.90;;;;;;;20.16;88.18;98678.63;10000519;23;20079;-75
2022/08/17 06:58:40;;;;;;;1999.90;999.90;;;;;;;20.28;89.12;98681.50;10040439;23;20023;-75
2022/08/17 07:02:55;;;;;;;1999.90;999.90;;;;;;;20.37;88.48;98667.84;10020403;23;20134;-75
2022/08/17 07:08:10;;;;;;;1999.90;999.90;;;;;;;20.41;87.67;98664.97;10026729;23;20027;-75
2022/08/17 07:11:49;;;;;;;1999.90;999.90;;;;;;;20.45;87.13;98671.75;9983157;23;20027;-76
2022/08/17 07:15:56;;;;;;;1999.90;999.90;;;;;;;20.50;87.17;98671.53;10022114;23;20037;-76
2022/08/17 07:20:05;;;;;;;1999.90;999.90;;;;;;;20.51;85.83;98674.06;10026418;23;20901;-74
2022/08/17 07:24:31;;;;;;;1999.90;999.90;;;;;;;20.62;85.08;98681.34;10024929;23;20023;-73
2022/08/17 07:28:34;;;;;;;1999.90;999.90;;;;;;;20.74;85.59;98678.03;10027214;23;20018;-74
2022/08/17 07:32:44;;;;;;;1999.90;999.90;;;;;;;20.81;84.83;98671.44;10021082;23;20030;-75
2022/08/17 07:36:45;;;;;;;1999.90;999.90;;;;;;;20.88;85.07;98671.13;10026153;23;20336;-75
2022/08/17 07:40:56;;;;;;;1999.90;999.90;;;;;;;20.94;85.42;98687.44;10000099;23;20050;-75
2022/08/17 07:48:17;;;;;;;1999.90;999.90;;;;;;;20.94;84.87;98702.44;9999929;23;20069;-75
2022/08/17 07:49:30;;;;;;;1999.90;999.90;;;;;;;20.92;85.12;98699.03;10023747;23;20852;-75
2022/08/17 07:53:32;;;;;;;1999.90;999.90;;;;;;;20.90;84.44;98696.47;10001445;23;20826;-74
2022/08/17 07:57:35;;;;;;;1999.90;999.90;;;;;;;20.93;83.85;98708.66;10026359;23;20030;-75
2022/08/17 08:01:37;;;;;;;1999.90;999.90;;;;;;;21.04;83.79;98719.44;10020494;23;20027;-75
2022/08/17 08:05:52;;;;;;;1999.90;999.90;;;;;;;21.61;82.94;98733.69;10025922;23;20026;-76
2022/08/17 08:10:26;;;;;;;1999.90;999.90;;;;;;;22.31;80.18;98739.97;10001704;23;20573;-75
2022/08/17 08:14:37;;;;;;;1999.90;999.90;;;;;;;22.71;76.09;98758.63;10025633;23;20070;-75
2022/08/17 08:18:45;;;;;;;1999.90;999.90;;;;;;;22.92;76.39;98767.84;10011575;23;20736;-75
2022/08/17 08:23:09;;;;;;;1999.90;999.90;;;;;;;22.83;73.62;98779.03;10021698;23;20701;-75
2022/08/17 08:27:26;;;;;;;1999.90;999.90;;;;;;;22.79;72.26;98779.28;10038134;23;20419;-75
2022/08/17 08:32:05;;;;;;;1999.90;999.90;;;;;;;23.01;73.37;98778.81;10020619;23;20038;-76
2022/08/17 08:36:24;;;;;;;1999.90;999.90;;;;;;;23.50;69.59;98776.41;10011901;23;20331;-76
2022/08/17 08:41:06;;;;;;;1999.90;999.90;;;;;;;24.51;67.08;98780.94;10021571;23;20101;-76
2022/08/17 08:45:20;;;;;;;1999.90;999.90;;;;;;;25.18;64.66;98777.88;10020663;23;20323;-76
2022/08/17 08:49:50;;;;;;;1999.90;999.90;;;;;;;25.75;63.15;98791.28;10021856;23;20018;-76
2022/08/17 08:54:32;;;;;;;1999.90;999.90;;;;;;;25.48;61.46;98798.66;10025314;23;20035;-76
2022/08/17 08:59:04;;;;;;;1999.90;999.90;;;;;;;24.99;63.05;98802.28;10026898;23;20160;-76
2022/08/17 09:03:43;;;;;;;1999.90;999.90;;;;;;;24.86;63.58;98810.28;10022103;23;20026;-76
2022/08/17 09:08:02;;;;;;;1999.90;999.90;;;;;;;25.22;63.71;98795.28;10043595;23;20325;-76
2022/08/17 09:12:15;;;;;;;1999.90;999.90;;;;;;;25.77;61.50;98788.53;10025517;23;20043;-76
2022/08/17 09:16:28;;;;;;;1999.90;999.90;;;;;;;26.17;59.27;98791.59;10020151;23;20026;-76
2022/08/17 09:20:42;;;;;;;1999.90;999.90;;;;;;;26.24;58.50;98799.97;10024240;23;20125;-76
2022/08/17 09:25:06;;;;;;;1999.90;999.90;;;;;;;26.35;58.18;98784.03;10023794;23;20057;-76
2022/08/17 09:29:12;;;;;;;1999.90;999.90;;;;;;;26.80;56.43;98776.84;10041805;23;20018;-76
2022/08/17 09:33:21;;;;;;;1999.90;999.90;;;;;;;27.30;55.92;98766.56;9995778;23;20441;-76
2022/08/17 09:37:34;;;;;;;1999.90;999.90;;;;;;;27.62;54.09;98753.19;10016555;23;20027;-76
2022/08/17 09:41:45;;;;;;;1999.90;999.90;;;;;;;27.86;53.23;98732.47;10025330;23;20022;-76
2022/08/17 09:45:52;;;;;;;1999.90;999.90;;;;;;;27.59;51.40;98750.78;9995576;23;20026;-76
2022/08/17 09:50:02;;;;;;;1999.90;999.90;;;;;;;26.98;51.75;98770.03;10026407;23;20054;-76
2022/08/17 09:54:04;;;;;;;1999.90;999.90;;;;;;;26.12;52.31;98784.00;9997920;23;20501;-76
2022/08/17 09:58:58;;;;;;;1999.90;999.90;;;;;;;26.15;54.27;98773.09;10025055;23;20023;-76
2022/08/17 10:03:18;;;;;;;1999.90;999.90;;;;;;;26.55;53.92;98777.97;10020123;23;20039;-76
2022/08/17 10:07:45;;;;;;;1999.90;999.90;;;;;;;26.78;53.42;98795.63;9997703;23;20046;-76
2022/08/17 10:16:39;;;;;;;1999.90;999.90;;;;;;;27.61;49.65;98795.00;10017376;23;20058;-76
2022/08/17 10:20:47;;;;;;;1999.90;999.90;;;;;;;28.02;48.29;98793.38;9998281;23;20285;-76
2022/08/17 10:29:33;;;;;;;1999.90;999.90;;;;;;;27.65;48.14;98783.16;10024264;23;20018;-76
2022/08/17 10:34:17;;;;;;;1999.90;999.90;;;;;;;27.35;46.51;98778.53;10022644;23;20022;-76
2022/08/17 10:38:28;;;;;;;1999.90;999.90;;;;;;;27.42;47.57;98770.88;9993034;23;20117;-76
2022/08/17 10:42:36;;;;;;;1999.90;999.90;;;;;;;27.56;45.10;98791.91;9996015;23;20050;-75
2022/08/17 10:47:06;;;;;;;1999.90;999.90;;;;;;;27.60;45.62;98790.66;9992252;23;20041;-76
2022/08/17 10:51:09;;;;;;;1999.90;999.90;;;;;;;27.79;47.09;98786.47;10021552;23;20027;-76
2022/08/17 10:55:17;;;;;;;1999.90;999.90;;;;;;;28.13;45.79;98789.78;9996370;23;20121;-76
2022/08/17 10:59:37;;;;;;;1999.90;999.90;;;;;;;28.62;44.71;98790.88;10021869;23;20019;-76
2022/08/17 11:03:56;;;;;;;1999.90;999.90;;;;;;;28.99;44.93;98792.00;9991393;23;20031;-77
2022/08/17 11:08:36;;;;;;;1999.90;999.90;;;;;;;29.39;43.68;98789.22;9995674;23;20026;-76
2022/08/17 11:12:50;;;;;;;1999.90;999.90;;;;;;;29.22;41.79;98787.22;9973080;23;20080;-76
2022/08/17 11:17:50;;;;;;;1999.90;999.90;;;;;;;29.18;41.41;98785.81;9992170;23;20090;-76
2022/08/17 11:22:10;;;;;;;1999.90;999.90;;;;;;;29.15;40.36;98792.28;9828932;24;20040;-76
2022/08/17 11:26:31;;;;;;;1999.90;999.90;;;;;;;28.63;42.06;98782.72;9843764;24;20059;-76
2022/08/17 11:30:46;;;;;;;1999.90;999.90;;;;;;;28.94;42.63;98782.69;9799480;24;20373;-76
2022/08/17 11:35:03;;;;;;;1999.90;999.90;;;;;;;29.35;38.09;98776.25;9834402;24;20028;-75
2022/08/17 11:39:14;;;;;;;1999.90;999.90;;;;;;;29.51;38.99;98773.06;9875857;24;20024;-75
2022/08/17 11:43:29;;;;;;;1999.90;999.90;;;;;;;29.47;37.43;98765.31;9875397;23;20444;-75
2022/08/17 11:52:39;;;;;;;1999.90;999.90;;;;;;;29.89;38.83;98772.16;9974865;23;20839;-75
2022/08/17 11:56:47;;;;;;;1999.90;999.90;;;;;;;30.18;38.77;98780.16;10020363;23;20050;-75
2022/08/17 12:00:55;;;;;;;1999.90;999.90;;;;;;;30.35;36.66;98771.34;10014962;23;20026;-75
2022/08/17 12:05:00;;;;;;;1999.90;999.90;;;;;;;30.48;35.62;98763.81;10044271;23;20023;-75
2022/08/17 12:09:17;;;;;;;1999.90;999.90;;;;;;;30.54;35.24;98771.28;10035169;23;20014;-75
2022/08/17 12:13:20;;;;;;;1999.90;999.90;;;;;;;30.49;34.16;98744.06;10019546;23;20050;-75
2022/08/17 12:17:25;;;;;;;1999.90;999.90;;;;;;;30.65;35.62;98751.47;10014970;23;20057;-75
2022/08/17 12:21:58;;;;;;;1999.90;999.90;;;;;;;30.84;35.56;98756.72;10020897;23;20498;-75
2022/08/17 12:26:22;;;;;;;1999.90;999.90;;;;;;;30.78;34.30;98761.84;10023891;23;20620;-75
2022/08/17 12:30:24;;;;;;;1999.90;999.90;;;;;;;31.00;35.29;98753.38;10022621;23;20109;-75
2022/08/17 12:34:37;;;;;;;1999.90;999.90;;;;;;;31.11;34.88;98747.81;10026513;23;20042;-75
2022/08/17 12:38:38;;;;;;;1999.90;999.90;;;;;;;31.12;34.73;98751.31;10025776;23;20470;-75
2022/08/17 12:42:40;;;;;;;1999.90;999.90;;;;;;;31.26;35.08;98750.84;10026789;23;20433;-75
2022/08/17 12:46:57;;;;;;;1999.90;999.90;;;;;;;31.12;33.25;98746.81;10023106;23;20065;-75
2022/08/17 12:51:03;;;;;;;1999.90;999.90;;;;;;;31.14;34.34;98735.94;9999675;23;20046;-75
2022/08/17 12:55:19;;;;;;;1999.90;999.90;;;;;;;31.11;33.27;98733.56;10002778;23;20023;-76
2022/08/17 12:59:22;;;;;;;1999.90;999.90;;;;;;;31.16;33.55;98720.50;10002617;23;20019;-74
2022/08/17 13:03:38;;;;;;;1999.90;999.90;;;;;;;31.38;33.66;98712.00;10021935;23;20066;-76
2022/08/17 13:07:41;;;;;;;1999.90;999.90;;;;;;;31.46;33.49;98722.00;10026811;23;20026;-76
2022/08/17 13:11:53;;;;;;;1999.90;999.90;;;;;;;31.11;32.80;98722.81;10023118;23;20584;-75
2022/08/17 13:16:16;;;;;;;1999.90;999.90;;;;;;;30.50;33.85;98710.91;9998834;23;20014;-75
2022/08/17 13:20:17;;;;;;;1999.90;999.90;;;;;;;30.60;33.89;98709.03;10026415;23;20023;-76
2022/08/17 13:24:28;;;;;;;1999.90;999.90;;;;;;;30.78;33.35;98709.09;10025427;23;20050;-75
2022/08/17 13:28:46;;;;;;;1999.90;999.90;;;;;;;30.82;33.08;98696.22;10025556;23;20022;-76
2022/08/17 13:32:48;;;;;;;1999.90;999.90;;;;;;;30.96;33.30;98698.38;10020291;23;20038;-75
2022/08/17 13:37:12;;;;;;;1999.90;999.90;;;;;;;30.54;33.26;98708.78;10038568;23;20105;-75
2022/08/17 13:41:34;;;;;;;1999.90;999.90;;;;;;;30.06;33.73;98708.03;9976001;23;20355;-75
2022/08/17 13:45:42;;;;;;;1999.90;999.90;;;;;;;29.93;35.09;98695.91;10019958;23;20023;-75
2022/08/17 13:49:45;;;;;;;1999.90;999.90;;;;;;;30.38;35.24;98688.84;9998767;23;20023;-74
2022/08/17 13:53:53;;;;;;;1999.90;999.90;;;;;;;30.40;34.59;98677.13;10025107;23;20109;-74
2022/08/17 13:57:55;;;;;;;1999.90;999.90;;;;;;;30.23;34.42;98681.44;10025651;23;20582;-74
2022/08/17 14:02:10;;;;;;;1999.90;999.90;;;;;;;30.43;32.74;98688.38;10020118;23;20027;-74
2022/08/17 14:06:11;;;;;;;1999.90;999.90;;;;;;;30.47;31.92;98683.56;10025863;23;20026;-74
2022/08/17 14:10:24;;;;;;;1999.90;999.90;;;;;;;30.63;32.78;98667.72;10024156;23;20025;-74
2022/08/17 14:14:26;;;;;;;1999.90;999.90;;;;;;;30.72;32.29;98663.28;10024331;23;20434;-73
2022/08/17 14:18:27;;;;;;;1999.90;999.90;;;;;;;30.50;31.29;98676.06;10019894;23;20498;-73
2022/08/17 14:22:52;;;;;;;1999.90;999.90;;;;;;;30.40;33.47;98666.41;10022933;23;20026;-73
2022/08/17 14:26:55;;;;;;;1999.90;999.90;;;;;;;30.37;33.15;98657.69;10024236;23;20485;-74
2022/08/17 14:30:56;;;;;;;1999.90;999.90;;;;;;;30.35;33.66;98659.69;10021141;23;20118;-73
2022/08/17 14:34:59;;;;;;;1999.90;999.90;;;;;;;30.60;32.71;98662.63;10023786;23;20030;-73
2022/08/17 14:39:01;;;;;;;1999.90;999.90;;;;;;;30.88;31.54;98656.25;10027356;23;20061;-74
2022/08/17 14:43:02;;;;;;;1999.90;999.90;;;;;;;31.11;31.82;98647.72;10027116;23;20673;-75
2022/08/17 14:47:06;;;;;;;1999.90;999.90;;;;;;;31.24;31.73;98648.19;10021440;23;20038;-74
2022/08/17 14:51:07;;;;;;;1999.90;999.90;;;;;;;31.39;31.46;98661.88;9999808;23;20082;-75
2022/08/17 14:55:11;;;;;;;1999.90;999.90;;;;;;;31.49;30.90;98654.56;9974444;23;20391;-75
2022/08/17 14:59:15;;;;;;;1999.90;999.90;;;;;;;31.51;30.52;98658.78;9998904;23;20518;-75
2022/08/17 15:03:17;;;;;;;1999.90;999.90;;;;;;;31.27;31.95;98661.31;9998648;23;20580;-75
2022/08/17 15:07:19;;;;;;;1999.90;999.90;;;;;;;30.77;31.33;98656.47;10025868;23;20130;-76
2022/08/17 15:11:26;;;;;;;1999.90;999.90;;;;;;;30.47;32.09;98646.91;10000368;23;20090;-74
2022/08/17 15:15:28;;;;;;;1999.90;999.90;;;;;;;30.59;33.79;98656.41;10020929;23;20018;-74
2022/08/17 15:19:29;;;;;;;1999.90;999.90;;;;;;;30.49;32.35;98660.13;10023922;23;20038;-74
2022/08/17 15:23:31;;;;;;;1999.90;999.90;;;;;;;30.35;31.31;98666.88;9999398;23;20069;-75
2022/08/17 15:27:33;;;;;;;1999.90;999.90;;;;;;;30.31;32.76;98668.16;10001908;23;20054;-74
2022/08/17 15:31:35;;;;;;;1999.90;999.90;;;;;;;30.41;32.23;98674.31;10019338;23;20051;-74
2022/08/17 15:35:37;;;;;;;1999.90;999.90;;;;;;;30.58;31.86;98664.63;10005675;23;20019;-75
2022/08/17 15:39:38;;;;;;;1999.90;999.90;;;;;;;30.75;32.08;98658.47;10022432;23;20025;-75
2022/08/17 15:43:41;;;;;;;1999.90;999.90;;;;;;;30.81;31.40;98652.47;10019984;23;20110;-75
2022/08/17 15:47:43;;;;;;;1999.90;999.90;;;;;;;31.02;31.34;98659.34;10016426;23;20027;-74
2022/08/17 15:51:44;;;;;;;1999.90;999.90;;;;;;;31.02;31.22;98641.44;10021722;23;20029;-74
2022/08/17 15:55:45;;;;;;;1999.90;999.90;;;;;;;31.17;31.24;98641.72;10060685;23;20053;-75
2022/08/17 15:59:47;;;;;;;1999.90;999.90;;;;;;;31.26;31.02;98640.84;10021420;23;20122;-75
2022/08/17 16:03:59;;;;;;;1999.90;999.90;;;;;;;31.48;31.62;98639.47;10022409;23;20490;-75
2022/08/17 16:08:09;;;;;;;1999.90;999.90;;;;;;;31.10;30.91;98644.19;10022926;23;20033;-75
2022/08/17 16:12:15;;;;;;;1999.90;999.90;;;;;;;30.87;31.65;98651.84;10038244;23;20265;-75
2022/08/17 16:16:16;;;;;;;1999.90;999.90;;;;;;;30.94;31.29;98663.66;10018624;23;20120;-75
2022/08/17 16:20:18;;;;;;;1999.90;999.90;;;;;;;31.02;31.37;98662.03;10020402;23;20663;-75
2022/08/17 16:24:21;;;;;;;1999.90;999.90;;;;;;;30.89;31.10;98662.44;10020788;23;20030;-75
2022/08/17 16:28:23;;;;;;;1999.90;999.90;;;;;;;30.54;31.17;98655.19;10020354;23;20029;-75
2022/08/17 16:32:37;;;;;;;1999.90;999.90;;;;;;;30.18;31.67;98656.97;10022782;23;20443;-75
2022/08/17 16:36:38;;;;;;;1999.90;999.90;;;;;;;29.93;32.17;98661.09;10020248;23;20023;-75
2022/08/17 16:40:41;;;;;;;1999.90;999.90;;;;;;;29.66;32.75;98657.41;10020726;23;20118;-75
2022/08/17 16:44:42;;;;;;;1999.90;999.90;;;;;;;29.46;33.20;98658.44;10020055;23;20038;-75
2022/08/17 16:48:45;;;;;;;1999.90;999.90;;;;;;;29.37;34.76;98659.25;10016274;23;20050;-74
2022/08/17 16:52:47;;;;;;;1999.90;999.90;;;;;;;29.34;35.89;98646.19;10022907;23;20030;-74
2022/08/17 16:56:48;;;;;;;1999.90;999.90;;;;;;;29.25;35.78;98650.53;10037826;23;20396;-75
2022/08/17 17:00:50;;;;;;;1999.90;999.90;;;;;;;29.18;35.36;98650.28;10021188;23;20029;-74
2022/08/17 17:05:01;;;;;;;1999.90;999.90;;;;;;;29.08;35.02;98651.25;10022863;23;20438;-74
2022/08/17 17:09:09;;;;;;;1999.90;999.90;;;;;;;28.96;35.42;98647.06;10023660;23;20030;-74
2022/08/17 17:13:43;;;;;;;1999.90;999.90;;;;;;;28.91;35.35;98644.00;10027913;23;20478;-74
2022/08/17 17:17:47;;;;;;;1999.90;999.90;;;;;;;28.79;35.25;98641.41;10024031;23;20106;-74
2022/08/17 17:21:51;;;;;;;1999.90;999.90;;;;;;;28.74;36.14;98627.63;10028197;23;20047;-74
2022/08/17 17:26:12;;;;;;;1999.90;999.90;;;;;;;28.70;36.24;98625.34;10026607;23;20069;-74
2022/08/17 17:30:19;;;;;;;1999.90;999.90;;;;;;;28.64;35.99;98617.91;10023146;23;20672;-75
2022/08/17 17:34:21;;;;;;;1999.90;999.90;;;;;;;28.48;37.56;98619.28;10024329;23;20114;-74
2022/08/17 17:38:28;;;;;;;1999.90;999.90;;;;;;;28.28;39.78;98621.09;10028136;23;20058;-74
2022/08/17 17:42:31;;;;;;;1999.90;999.90;;;;;;;28.13;39.89;98614.41;10002495;23;20423;-74
2022/08/17 17:46:39;;;;;;;1999.90;999.90;;;;;;;27.98;40.86;98608.59;10034450;23;20506;-74
2022/08/17 17:50:49;;;;;;;1999.90;999.90;;;;;;;27.83;40.78;98620.66;10001651;23;20061;-74
2022/08/17 17:55:12;;;;;;;1999.90;999.90;;;;;;;27.64;43.33;98626.72;10027550;23;20054;-75
2022/08/17 17:59:20;;;;;;;1999.90;999.90;;;;;;;27.48;43.38;98620.19;10003216;23;20023;-75
2022/08/17 18:03:45;;;;;;;1999.90;999.90;;;;;;;27.28;43.09;98629.84;10027568;23;20030;-75
2022/08/17 18:08:03;;;;;;;1999.90;999.90;;;;;;;26.99;44.53;98638.47;10025953;23;20027;-75
2022/08/17 18:12:11;;;;;;;1999.90;999.90;;;;;;;26.82;45.09;98643.53;10024574;23;20033;-75
2022/08/17 18:16:13;;;;;;;;;;;;;;;26.68;44.38;98639.34;10022064;23;20041;-75
2022/08/17 18:20:22;;;;;;;1999.90;999.90;;;;;;;26.48;46.01;98649.81;10022893;23;20024;-75
2022/08/17 18:24:54;;;;;;;1999.90;999.90;;;;;;;26.23;46.72;98666.03;10018183;23;20027;-75
2022/08/17 18:28:56;;;;;;;1999.90;999.90;;;;;;;26.04;46.10;98668.50;9998514;23;20025;-75
2022/08/17 18:33:22;;;;;;;1999.90;999.90;;;;;;;25.84;47.78;98670.88;10019632;23;20431;-74
2022/08/17 18:37:43;;;;;;;1999.90;999.90;;;;;;;25.64;48.00;98674.22;9987734;23;20115;-75
2022/08/17 18:41:47;;;;;;;;;;;;;;;25.27;48.01;98670.88;10000746;23;20018;-75
2022/08/17 18:45:52;;;;;;;1999.90;999.90;;;;;;;24.96;48.41;98690.94;10020002;23;19971;-74
2022/08/17 18:49:57;;;;;;;1999.90;999.90;;;;;;;24.74;50.19;98698.78;10000844;23;20015;-74
2022/08/17 18:54:13;;;;;;;1999.90;999.90;;;;;;;24.61;50.47;98712.97;10040821;23;20118;-74